sensor_id;sensor_type;location;lat;lon;timestamp;P1;durP1;ratioP1;P2;durP2;ratioP2
62543;SDS011;48597;49.030;1.822;2023-12-04T00:01:21;2.08;;;1.65;;
62543;SDS011;48597;49.030;1.822;2023-12-04T00:03:46;2.05;;;1.70;;
62543;SDS011;48597;49.030;1.822;2023-12-04T00:06:11;2.22;;;1.85;;
62543;SDS011;48597;49.030;1.822;2023-12-04T00:08:38;1.75;;;1.50;;
62543;SDS011;48597;49.030;1.822;2023-12-04T00:11:04;2.08;;;1.77;;
62543;SDS011;48597;49.030;1.822;2023-12-04T00:13:30;2.65;;;1.73;;
62543;SDS011;48597;49.030;1.822;2023-12-04T00:15:56;2.03;;;1.60;;
62543;SDS011;48597;49.030;1.822;2023-12-04T00:18:22;1.65;;;1.52;;
62543;SDS011;48597;49.030;1.822;2023-12-04T00:20:47;1.70;;;1.60;;
62543;SDS011;48597;49.030;1.822;2023-12-04T00:23:13;1.98;;;1.77;;
62543;SDS011;48597;49.030;1.822;2023-12-04T00:25:38;1.70;;;1.60;;
62543;SDS011;48597;49.030;1.822;2023-12-04T00:28:03;2.05;;;1.70;;
62543;SDS011;48597;49.030;1.822;2023-12-04T00:30:29;1.98;;;1.60;;
62543;SDS011;48597;49.030;1.822;2023-12-04T00:32:54;1.90;;;1.70;;
62543;SDS011;48597;49.030;1.822;2023-12-04T00:35:19;2.17;;;1.70;;
62543;SDS011;48597;49.030;1.822;2023-12-04T00:37:45;1.60;;;1.50;;
62543;SDS011;48597;49.030;1.822;2023-12-04T00:40:10;1.67;;;1.58;;
62543;SDS011;48597;49.030;1.822;2023-12-04T00:42:36;1.90;;;1.67;;
62543;SDS011;48597;49.030;1.822;2023-12-04T00:45:02;1.83;;;1.60;;
62543;SDS011;48597;49.030;1.822;2023-12-04T00:47:28;1.67;;;1.50;;
62543;SDS011;48597;49.030;1.822;2023-12-04T00:49:53;2.47;;;1.75;;
62543;SDS011;48597;49.030;1.822;2023-12-04T00:52:19;1.70;;;1.50;;
62543;SDS011;48597;49.030;1.822;2023-12-04T00:54:44;2.13;;;1.60;;
62543;SDS011;48597;49.030;1.822;2023-12-04T00:57:09;1.63;;;1.45;;
62543;SDS011;48597;49.030;1.822;2023-12-04T00:59:35;1.60;;;1.50;;
62543;SDS011;48597;49.030;1.822;2023-12-04T01:02:00;1.67;;;1.55;;
62543;SDS011;48597;49.030;1.822;2023-12-04T01:04:26;1.83;;;1.65;;
62543;SDS011;48597;49.030;1.822;2023-12-04T01:06:51;1.85;;;1.65;;
62543;SDS011;48597;49.030;1.822;2023-12-04T01:09:17;1.85;;;1.60;;
62543;SDS011;48597;49.030;1.822;2023-12-04T01:11:43;1.60;;;1.50;;
62543;SDS011;48597;49.030;1.822;2023-12-04T01:14:08;1.52;;;1.42;;
62543;SDS011;48597;49.030;1.822;2023-12-04T01:16:34;1.58;;;1.40;;
62543;SDS011;48597;49.030;1.822;2023-12-04T01:18:59;1.70;;;1.50;;
62543;SDS011;48597;49.030;1.822;2023-12-04T01:21:24;2.10;;;1.60;;
62543;SDS011;48597;49.030;1.822;2023-12-04T01:23:50;2.20;;;1.70;;
62543;SDS011;48597;49.030;1.822;2023-12-04T01:26:15;1.77;;;1.50;;
62543;SDS011;48597;49.030;1.822;2023-12-04T01:28:40;1.60;;;1.50;;
62543;SDS011;48597;49.030;1.822;2023-12-04T01:31:06;1.60;;;1.40;;
62543;SDS011;48597;49.030;1.822;2023-12-04T01:33:31;1.45;;;1.35;;
62543;SDS011;48597;49.030;1.822;2023-12-04T01:35:57;2.30;;;1.60;;
62543;SDS011;48597;49.030;1.822;2023-12-04T01:38:22;1.75;;;1.55;;
62543;SDS011;48597;49.030;1.822;2023-12-04T01:40:48;2.53;;;1.98;;
62543;SDS011;48597;49.030;1.822;2023-12-04T01:43:13;1.98;;;1.40;;
62543;SDS011;48597;49.030;1.822;2023-12-04T01:45:40;1.95;;;1.67;;
62543;SDS011;48597;49.030;1.822;2023-12-04T01:48:06;1.60;;;1.50;;
62543;SDS011;48597;49.030;1.822;2023-12-04T01:50:34;1.83;;;1.40;;
62543;SDS011;48597;49.030;1.822;2023-12-04T01:53:00;2.40;;;1.58;;
62543;SDS011;48597;49.030;1.822;2023-12-04T01:55:27;2.20;;;1.50;;
62543;SDS011;48597;49.030;1.822;2023-12-04T01:57:54;1.80;;;1.40;;
62543;SDS011;48597;49.030;1.822;2023-12-04T02:00:21;1.75;;;1.35;;
62543;SDS011;48597;49.030;1.822;2023-12-04T02:02:46;2.45;;;1.45;;
62543;SDS011;48597;49.030;1.822;2023-12-04T02:05:12;2.40;;;1.60;;
62543;SDS011;48597;49.030;1.822;2023-12-04T02:07:40;1.60;;;1.35;;
62543;SDS011;48597;49.030;1.822;2023-12-04T02:10:06;1.60;;;1.50;;
62543;SDS011;48597;49.030;1.822;2023-12-04T02:12:32;1.80;;;1.50;;
62543;SDS011;48597;49.030;1.822;2023-12-04T02:14:58;1.60;;;1.50;;
62543;SDS011;48597;49.030;1.822;2023-12-04T02:17:23;1.63;;;1.50;;
62543;SDS011;48597;49.030;1.822;2023-12-04T02:19:50;2.08;;;1.42;;
62543;SDS011;48597;49.030;1.822;2023-12-04T02:22:16;1.63;;;1.48;;
62543;SDS011;48597;49.030;1.822;2023-12-04T02:24:43;2.17;;;1.52;;
62543;SDS011;48597;49.030;1.822;2023-12-04T02:27:16;1.77;;;1.40;;
62543;SDS011;48597;49.030;1.822;2023-12-04T02:29:53;1.67;;;1.42;;
62543;SDS011;48597;49.030;1.822;2023-12-04T02:32:22;1.63;;;1.42;;
62543;SDS011;48597;49.030;1.822;2023-12-04T02:34:50;1.73;;;1.40;;
62543;SDS011;48597;49.030;1.822;2023-12-04T02:37:19;1.63;;;1.42;;
62543;SDS011;48597;49.030;1.822;2023-12-04T02:39:46;1.70;;;1.50;;
62543;SDS011;48597;49.030;1.822;2023-12-04T02:42:13;1.55;;;1.38;;
62543;SDS011;48597;49.030;1.822;2023-12-04T02:44:39;1.60;;;1.27;;
62543;SDS011;48597;49.030;1.822;2023-12-04T02:47:04;1.48;;;1.38;;
62543;SDS011;48597;49.030;1.822;2023-12-04T02:49:29;1.33;;;1.23;;
62543;SDS011;48597;49.030;1.822;2023-12-04T02:51:55;1.80;;;1.55;;
62543;SDS011;48597;49.030;1.822;2023-12-04T02:54:20;1.70;;;1.40;;
62543;SDS011;48597;49.030;1.822;2023-12-04T02:56:45;2.28;;;1.60;;
62543;SDS011;48597;49.030;1.822;2023-12-04T02:59:11;2.35;;;1.30;;
62543;SDS011;48597;49.030;1.822;2023-12-04T03:01:36;1.33;;;1.17;;
62543;SDS011;48597;49.030;1.822;2023-12-04T03:04:02;1.50;;;1.40;;
62543;SDS011;48597;49.030;1.822;2023-12-04T03:06:27;1.75;;;1.35;;
62543;SDS011;48597;49.030;1.822;2023-12-04T03:08:52;1.50;;;1.40;;
62543;SDS011;48597;49.030;1.822;2023-12-04T03:11:17;1.40;;;1.25;;
62543;SDS011;48597;49.030;1.822;2023-12-04T03:13:43;1.50;;;1.40;;
62543;SDS011;48597;49.030;1.822;2023-12-04T03:16:14;1.50;;;1.40;;
62543;SDS011;48597;49.030;1.822;2023-12-04T03:18:41;1.50;;;1.40;;
62543;SDS011;48597;49.030;1.822;2023-12-04T03:21:06;1.80;;;1.30;;
62543;SDS011;48597;49.030;1.822;2023-12-04T03:23:32;1.50;;;1.30;;
62543;SDS011;48597;49.030;1.822;2023-12-04T03:25:57;1.55;;;1.35;;
62543;SDS011;48597;49.030;1.822;2023-12-04T03:28:22;1.65;;;1.20;;
62543;SDS011;48597;49.030;1.822;2023-12-04T03:30:48;1.55;;;1.35;;
62543;SDS011;48597;49.030;1.822;2023-12-04T03:33:13;1.33;;;1.23;;
62543;SDS011;48597;49.030;1.822;2023-12-04T03:35:39;1.48;;;1.25;;
62543;SDS011;48597;49.030;1.822;2023-12-04T03:38:04;1.48;;;1.10;;
62543;SDS011;48597;49.030;1.822;2023-12-04T03:40:29;1.40;;;1.30;;
62543;SDS011;48597;49.030;1.822;2023-12-04T03:42:55;1.70;;;1.42;;
62543;SDS011;48597;49.030;1.822;2023-12-04T03:45:20;1.48;;;1.35;;
62543;SDS011;48597;49.030;1.822;2023-12-04T03:47:45;1.50;;;1.33;;
62543;SDS011;48597;49.030;1.822;2023-12-04T03:50:11;1.40;;;1.25;;
62543;SDS011;48597;49.030;1.822;2023-12-04T03:52:36;1.50;;;1.38;;
62543;SDS011;48597;49.030;1.822;2023-12-04T03:55:02;1.45;;;1.35;;
62543;SDS011;48597;49.030;1.822;2023-12-04T03:57:28;1.30;;;1.20;;
62543;SDS011;48597;49.030;1.822;2023-12-04T03:59:55;1.50;;;1.40;;
62543;SDS011;48597;49.030;1.822;2023-12-04T04:02:20;1.23;;;1.10;;
62543;SDS011;48597;49.030;1.822;2023-12-04T04:04:45;2.20;;;1.50;;
62543;SDS011;48597;49.030;1.822;2023-12-04T04:07:11;1.23;;;1.08;;
62543;SDS011;48597;49.030;1.822;2023-12-04T04:09:36;1.30;;;1.20;;
62543;SDS011;48597;49.030;1.822;2023-12-04T04:12:02;1.40;;;1.30;;
62543;SDS011;48597;49.030;1.822;2023-12-04T04:14:27;1.60;;;1.23;;
62543;SDS011;48597;49.030;1.822;2023-12-04T04:16:53;1.65;;;1.40;;
62543;SDS011;48597;49.030;1.822;2023-12-04T04:19:18;1.55;;;1.10;;
62543;SDS011;48597;49.030;1.822;2023-12-04T04:21:44;1.20;;;1.08;;
62543;SDS011;48597;49.030;1.822;2023-12-04T04:24:09;1.38;;;1.27;;
62543;SDS011;48597;49.030;1.822;2023-12-04T04:26:34;1.50;;;1.30;;
62543;SDS011;48597;49.030;1.822;2023-12-04T04:29:00;1.52;;;1.40;;
62543;SDS011;48597;49.030;1.822;2023-12-04T04:31:25;1.38;;;1.25;;
62543;SDS011;48597;49.030;1.822;2023-12-04T04:33:50;1.48;;;1.25;;
62543;SDS011;48597;49.030;1.822;2023-12-04T04:36:16;1.30;;;1.20;;
62543;SDS011;48597;49.030;1.822;2023-12-04T04:38:41;1.27;;;1.17;;
62543;SDS011;48597;49.030;1.822;2023-12-04T04:41:06;1.38;;;1.27;;
62543;SDS011;48597;49.030;1.822;2023-12-04T04:43:32;1.33;;;1.23;;
62543;SDS011;48597;49.030;1.822;2023-12-04T04:45:57;1.65;;;1.30;;
62543;SDS011;48597;49.030;1.822;2023-12-04T04:48:22;1.45;;;1.35;;
62543;SDS011;48597;49.030;1.822;2023-12-04T04:50:48;1.30;;;1.20;;
62543;SDS011;48597;49.030;1.822;2023-12-04T04:53:13;1.30;;;1.20;;
62543;SDS011;48597;49.030;1.822;2023-12-04T04:55:38;1.17;;;1.08;;
62543;SDS011;48597;49.030;1.822;2023-12-04T04:58:04;1.13;;;1.10;;
62543;SDS011;48597;49.030;1.822;2023-12-04T05:00:29;1.10;;;1.10;;
62543;SDS011;48597;49.030;1.822;2023-12-04T05:02:55;1.10;;;1.00;;
62543;SDS011;48597;49.030;1.822;2023-12-04T05:05:20;1.45;;;1.30;;
62543;SDS011;48597;49.030;1.822;2023-12-04T05:07:45;1.40;;;1.30;;
62543;SDS011;48597;49.030;1.822;2023-12-04T05:10:11;1.48;;;1.20;;
62543;SDS011;48597;49.030;1.822;2023-12-04T05:12:36;1.38;;;1.27;;
62543;SDS011;48597;49.030;1.822;2023-12-04T05:15:01;1.20;;;1.10;;
62543;SDS011;48597;49.030;1.822;2023-12-04T05:17:27;1.58;;;1.33;;
62543;SDS011;48597;49.030;1.822;2023-12-04T05:19:52;1.70;;;1.20;;
62543;SDS011;48597;49.030;1.822;2023-12-04T05:22:18;1.52;;;1.30;;
62543;SDS011;48597;49.030;1.822;2023-12-04T05:24:43;1.67;;;1.25;;
62543;SDS011;48597;49.030;1.822;2023-12-04T05:27:08;1.30;;;1.20;;
62543;SDS011;48597;49.030;1.822;2023-12-04T05:29:34;1.15;;;0.90;;
62543;SDS011;48597;49.030;1.822;2023-12-04T05:31:59;1.40;;;1.15;;
62543;SDS011;48597;49.030;1.822;2023-12-04T05:34:26;1.25;;;1.10;;
62543;SDS011;48597;49.030;1.822;2023-12-04T05:36:51;1.42;;;1.33;;
62543;SDS011;48597;49.030;1.822;2023-12-04T05:39:16;1.52;;;1.20;;
62543;SDS011;48597;49.030;1.822;2023-12-04T05:41:42;1.35;;;1.25;;
62543;SDS011;48597;49.030;1.822;2023-12-04T05:44:07;1.60;;;1.20;;
62543;SDS011;48597;49.030;1.822;2023-12-04T05:46:32;1.20;;;1.10;;
62543;SDS011;48597;49.030;1.822;2023-12-04T05:48:58;1.65;;;1.05;;
62543;SDS011;48597;49.030;1.822;2023-12-04T05:51:23;1.55;;;1.10;;
62543;SDS011;48597;49.030;1.822;2023-12-04T05:53:49;1.33;;;1.23;;
62543;SDS011;48597;49.030;1.822;2023-12-04T05:56:14;1.20;;;1.10;;
62543;SDS011;48597;49.030;1.822;2023-12-04T05:58:39;1.30;;;1.10;;
62543;SDS011;48597;49.030;1.822;2023-12-04T06:01:05;1.10;;;1.00;;
62543;SDS011;48597;49.030;1.822;2023-12-04T06:03:31;1.20;;;1.10;;
62543;SDS011;48597;49.030;1.822;2023-12-04T06:05:57;1.38;;;1.08;;
62543;SDS011;48597;49.030;1.822;2023-12-04T06:08:22;1.10;;;1.00;;
62543;SDS011;48597;49.030;1.822;2023-12-04T06:10:48;1.40;;;1.00;;
62543;SDS011;48597;49.030;1.822;2023-12-04T06:13:13;1.10;;;0.90;;
62543;SDS011;48597;49.030;1.822;2023-12-04T06:15:38;1.40;;;1.10;;
62543;SDS011;48597;49.030;1.822;2023-12-04T06:18:03;1.25;;;0.90;;
62543;SDS011;48597;49.030;1.822;2023-12-04T06:20:29;0.98;;;0.95;;
62543;SDS011;48597;49.030;1.822;2023-12-04T06:22:55;1.20;;;1.10;;
62543;SDS011;48597;49.030;1.822;2023-12-04T06:25:20;1.25;;;1.13;;
62543;SDS011;48597;49.030;1.822;2023-12-04T06:27:46;1.50;;;1.15;;
62543;SDS011;48597;49.030;1.822;2023-12-04T06:30:12;0.90;;;0.90;;
62543;SDS011;48597;49.030;1.822;2023-12-04T06:32:38;0.80;;;0.80;;
62543;SDS011;48597;49.030;1.822;2023-12-04T06:35:04;1.27;;;1.00;;
62543;SDS011;48597;49.030;1.822;2023-12-04T06:37:30;1.30;;;1.00;;
62543;SDS011;48597;49.030;1.822;2023-12-04T06:39:56;1.30;;;1.20;;
62543;SDS011;48597;49.030;1.822;2023-12-04T06:42:27;1.10;;;1.00;;
62543;SDS011;48597;49.030;1.822;2023-12-04T06:44:53;1.10;;;1.00;;
62543;SDS011;48597;49.030;1.822;2023-12-04T06:47:19;1.65;;;1.30;;
62543;SDS011;48597;49.030;1.822;2023-12-04T06:49:48;1.23;;;0.90;;
62543;SDS011;48597;49.030;1.822;2023-12-04T06:52:13;1.20;;;1.10;;
62543;SDS011;48597;49.030;1.822;2023-12-04T06:54:41;1.15;;;1.00;;
62543;SDS011;48597;49.030;1.822;2023-12-04T06:57:06;1.17;;;1.08;;
62543;SDS011;48597;49.030;1.822;2023-12-04T06:59:32;1.63;;;1.10;;
62543;SDS011;48597;49.030;1.822;2023-12-04T07:01:57;0.80;;;0.80;;
62543;SDS011;48597;49.030;1.822;2023-12-04T07:04:22;1.45;;;1.20;;
62543;SDS011;48597;49.030;1.822;2023-12-04T07:06:48;1.48;;;1.33;;
62543;SDS011;48597;49.030;1.822;2023-12-04T07:09:14;1.42;;;1.30;;
62543;SDS011;48597;49.030;1.822;2023-12-04T07:11:39;1.30;;;1.20;;
62543;SDS011;48597;49.030;1.822;2023-12-04T07:14:06;1.50;;;1.10;;
62543;SDS011;48597;49.030;1.822;2023-12-04T07:16:38;1.30;;;1.20;;
62543;SDS011;48597;49.030;1.822;2023-12-04T07:19:04;1.17;;;1.08;;
62543;SDS011;48597;49.030;1.822;2023-12-04T07:21:29;1.15;;;1.00;;
62543;SDS011;48597;49.030;1.822;2023-12-04T07:23:55;1.23;;;1.10;;
62543;SDS011;48597;49.030;1.822;2023-12-04T07:26:20;1.50;;;1.10;;
62543;SDS011;48597;49.030;1.822;2023-12-04T07:28:45;1.70;;;1.08;;
62543;SDS011;48597;49.030;1.822;2023-12-04T07:31:11;1.48;;;1.10;;
62543;SDS011;48597;49.030;1.822;2023-12-04T07:33:36;1.20;;;1.10;;
62543;SDS011;48597;49.030;1.822;2023-12-04T07:36:02;1.55;;;1.02;;
62543;SDS011;48597;49.030;1.822;2023-12-04T07:38:27;1.13;;;1.02;;
62543;SDS011;48597;49.030;1.822;2023-12-04T07:40:53;1.10;;;1.00;;
62543;SDS011;48597;49.030;1.822;2023-12-04T07:43:18;1.58;;;1.00;;
62543;SDS011;48597;49.030;1.822;2023-12-04T07:45:44;1.67;;;1.00;;
62543;SDS011;48597;49.030;1.822;2023-12-04T07:48:09;0.80;;;0.80;;
62543;SDS011;48597;49.030;1.822;2023-12-04T07:50:35;1.08;;;0.98;;
62543;SDS011;48597;49.030;1.822;2023-12-04T07:53:00;1.15;;;1.00;;
62543;SDS011;48597;49.030;1.822;2023-12-04T07:55:25;1.25;;;1.00;;
62543;SDS011;48597;49.030;1.822;2023-12-04T07:57:50;1.38;;;1.20;;
62543;SDS011;48597;49.030;1.822;2023-12-04T08:00:16;1.20;;;0.98;;
62543;SDS011;48597;49.030;1.822;2023-12-04T08:02:47;0.77;;;0.73;;
62543;SDS011;48597;49.030;1.822;2023-12-04T08:05:13;0.80;;;0.80;;
62543;SDS011;48597;49.030;1.822;2023-12-04T08:07:39;1.10;;;0.98;;
62543;SDS011;48597;49.030;1.822;2023-12-04T08:10:04;0.90;;;0.90;;
62543;SDS011;48597;49.030;1.822;2023-12-04T08:12:31;0.80;;;0.80;;
62543;SDS011;48597;49.030;1.822;2023-12-04T08:14:56;0.80;;;0.80;;
62543;SDS011;48597;49.030;1.822;2023-12-04T08:17:22;1.30;;;0.90;;
62543;SDS011;48597;49.030;1.822;2023-12-04T08:19:47;1.17;;;0.90;;
62543;SDS011;48597;49.030;1.822;2023-12-04T08:22:13;0.95;;;0.95;;
62543;SDS011;48597;49.030;1.822;2023-12-04T08:24:38;0.80;;;0.80;;
62543;SDS011;48597;49.030;1.822;2023-12-04T08:27:03;0.95;;;0.85;;
62543;SDS011;48597;49.030;1.822;2023-12-04T08:29:29;0.70;;;0.70;;
62543;SDS011;48597;49.030;1.822;2023-12-04T08:31:54;0.75;;;0.75;;
62543;SDS011;48597;49.030;1.822;2023-12-04T08:34:19;0.80;;;0.80;;
62543;SDS011;48597;49.030;1.822;2023-12-04T08:36:45;1.23;;;0.98;;
62543;SDS011;48597;49.030;1.822;2023-12-04T08:39:10;0.75;;;0.73;;
62543;SDS011;48597;49.030;1.822;2023-12-04T08:41:36;1.35;;;0.98;;
62543;SDS011;48597;49.030;1.822;2023-12-04T08:44:02;1.20;;;0.80;;
62543;SDS011;48597;49.030;1.822;2023-12-04T08:46:27;0.80;;;0.80;;
62543;SDS011;48597;49.030;1.822;2023-12-04T08:48:53;0.90;;;0.85;;
62543;SDS011;48597;49.030;1.822;2023-12-04T08:51:18;0.80;;;0.80;;
62543;SDS011;48597;49.030;1.822;2023-12-04T08:53:44;0.90;;;0.70;;
62543;SDS011;48597;49.030;1.822;2023-12-04T08:56:09;0.70;;;0.70;;
62543;SDS011;48597;49.030;1.822;2023-12-04T08:58:35;0.70;;;0.70;;
62543;SDS011;48597;49.030;1.822;2023-12-04T09:01:01;0.88;;;0.80;;
62543;SDS011;48597;49.030;1.822;2023-12-04T09:03:26;0.85;;;0.77;;
62543;SDS011;48597;49.030;1.822;2023-12-04T09:05:52;0.80;;;0.70;;
62543;SDS011;48597;49.030;1.822;2023-12-04T09:08:20;0.70;;;0.70;;
62543;SDS011;48597;49.030;1.822;2023-12-04T09:10:46;0.85;;;0.70;;
62543;SDS011;48597;49.030;1.822;2023-12-04T09:13:12;1.20;;;0.90;;
62543;SDS011;48597;49.030;1.822;2023-12-04T09:15:39;1.25;;;0.90;;
62543;SDS011;48597;49.030;1.822;2023-12-04T09:18:04;0.60;;;0.60;;
62543;SDS011;48597;49.030;1.822;2023-12-04T09:20:29;0.82;;;0.80;;
62543;SDS011;48597;49.030;1.822;2023-12-04T09:22:55;0.60;;;0.60;;
62543;SDS011;48597;49.030;1.822;2023-12-04T09:25:20;0.90;;;0.70;;
62543;SDS011;48597;49.030;1.822;2023-12-04T09:27:46;0.70;;;0.70;;
62543;SDS011;48597;49.030;1.822;2023-12-04T09:30:11;0.80;;;0.80;;
62543;SDS011;48597;49.030;1.822;2023-12-04T09:32:37;0.60;;;0.60;;
62543;SDS011;48597;49.030;1.822;2023-12-04T09:35:02;0.70;;;0.70;;
62543;SDS011;48597;49.030;1.822;2023-12-04T09:37:27;0.65;;;0.65;;
62543;SDS011;48597;49.030;1.822;2023-12-04T09:39:53;0.70;;;0.70;;
62543;SDS011;48597;49.030;1.822;2023-12-04T09:42:18;0.70;;;0.70;;
62543;SDS011;48597;49.030;1.822;2023-12-04T09:44:44;0.85;;;0.70;;
62543;SDS011;48597;49.030;1.822;2023-12-04T09:47:14;1.10;;;0.70;;
62543;SDS011;48597;49.030;1.822;2023-12-04T09:49:42;0.68;;;0.68;;
62543;SDS011;48597;49.030;1.822;2023-12-04T09:52:10;0.70;;;0.70;;
62543;SDS011;48597;49.030;1.822;2023-12-04T09:54:36;0.80;;;0.77;;
62543;SDS011;48597;49.030;1.822;2023-12-04T09:57:03;0.95;;;0.73;;
62543;SDS011;48597;49.030;1.822;2023-12-04T09:59:29;0.70;;;0.60;;
62543;SDS011;48597;49.030;1.822;2023-12-04T10:01:56;0.65;;;0.65;;
62543;SDS011;48597;49.030;1.822;2023-12-04T10:04:22;0.60;;;0.60;;
62543;SDS011;48597;49.030;1.822;2023-12-04T10:06:50;0.80;;;0.60;;
62543;SDS011;48597;49.030;1.822;2023-12-04T10:09:17;0.77;;;0.70;;
62543;SDS011;48597;49.030;1.822;2023-12-04T10:11:44;0.82;;;0.77;;
62543;SDS011;48597;49.030;1.822;2023-12-04T10:14:19;0.68;;;0.65;;
62543;SDS011;48597;49.030;1.822;2023-12-04T10:16:46;0.73;;;0.70;;
62543;SDS011;48597;49.030;1.822;2023-12-04T10:19:21;0.60;;;0.60;;
62543;SDS011;48597;49.030;1.822;2023-12-04T10:21:51;0.70;;;0.70;;
62543;SDS011;48597;49.030;1.822;2023-12-04T10:24:30;0.63;;;0.63;;
62543;SDS011;48597;49.030;1.822;2023-12-04T10:27:03;0.60;;;0.60;;
62543;SDS011;48597;49.030;1.822;2023-12-04T10:32:07;1.02;;;0.90;;
62543;SDS011;48597;49.030;1.822;2023-12-04T10:34:32;0.93;;;0.80;;
62543;SDS011;48597;49.030;1.822;2023-12-04T10:36:58;0.57;;;0.57;;
62543;SDS011;48597;49.030;1.822;2023-12-04T10:39:24;1.08;;;0.80;;
62543;SDS011;48597;49.030;1.822;2023-12-04T10:42:02;0.77;;;0.77;;
62543;SDS011;48597;49.030;1.822;2023-12-04T10:44:30;0.93;;;0.80;;
62543;SDS011;48597;49.030;1.822;2023-12-04T10:46:56;1.90;;;0.55;;
62543;SDS011;48597;49.030;1.822;2023-12-04T10:49:26;1.08;;;0.60;;
62543;SDS011;48597;49.030;1.822;2023-12-04T10:51:53;0.85;;;0.80;;
62543;SDS011;48597;49.030;1.822;2023-12-04T10:54:22;0.70;;;0.70;;
62543;SDS011;48597;49.030;1.822;2023-12-04T10:56:48;0.80;;;0.80;;
62543;SDS011;48597;49.030;1.822;2023-12-04T10:59:18;0.70;;;0.60;;
62543;SDS011;48597;49.030;1.822;2023-12-04T11:01:49;1.00;;;0.77;;
62543;SDS011;48597;49.030;1.822;2023-12-04T11:04:19;0.60;;;0.60;;
62543;SDS011;48597;49.030;1.822;2023-12-04T11:06:49;1.02;;;0.85;;
62543;SDS011;48597;49.030;1.822;2023-12-04T11:09:17;0.70;;;0.70;;
62543;SDS011;48597;49.030;1.822;2023-12-04T11:11:43;0.80;;;0.70;;
62543;SDS011;48597;49.030;1.822;2023-12-04T11:14:14;0.60;;;0.60;;
62543;SDS011;48597;49.030;1.822;2023-12-04T11:16:47;0.82;;;0.70;;
62543;SDS011;48597;49.030;1.822;2023-12-04T11:19:18;1.00;;;0.90;;
62543;SDS011;48597;49.030;1.822;2023-12-04T11:21:50;1.45;;;0.70;;
62543;SDS011;48597;49.030;1.822;2023-12-04T11:24:16;0.73;;;0.70;;
62543;SDS011;48597;49.030;1.822;2023-12-04T11:26:43;1.38;;;0.80;;
62543;SDS011;48597;49.030;1.822;2023-12-04T11:29:09;0.60;;;0.60;;
62543;SDS011;48597;49.030;1.822;2023-12-04T11:31:37;0.77;;;0.70;;
62543;SDS011;48597;49.030;1.822;2023-12-04T11:34:03;0.60;;;0.60;;
62543;SDS011;48597;49.030;1.822;2023-12-04T11:36:29;0.77;;;0.65;;
62543;SDS011;48597;49.030;1.822;2023-12-04T11:38:54;0.73;;;0.70;;
62543;SDS011;48597;49.030;1.822;2023-12-04T11:41:22;0.73;;;0.73;;
62543;SDS011;48597;49.030;1.822;2023-12-04T11:43:49;0.90;;;0.80;;
62543;SDS011;48597;49.030;1.822;2023-12-04T11:46:21;0.90;;;0.80;;
62543;SDS011;48597;49.030;1.822;2023-12-04T11:48:49;1.17;;;0.70;;
62543;SDS011;48597;49.030;1.822;2023-12-04T11:51:19;0.70;;;0.70;;
62543;SDS011;48597;49.030;1.822;2023-12-04T11:54:03;0.70;;;0.70;;
62543;SDS011;48597;49.030;1.822;2023-12-04T11:56:30;0.60;;;0.60;;
62543;SDS011;48597;49.030;1.822;2023-12-04T11:59:02;0.90;;;0.60;;
62543;SDS011;48597;49.030;1.822;2023-12-04T12:01:28;0.80;;;0.68;;
62543;SDS011;48597;49.030;1.822;2023-12-04T12:03:57;0.70;;;0.70;;
62543;SDS011;48597;49.030;1.822;2023-12-04T12:06:23;0.80;;;0.60;;
62543;SDS011;48597;49.030;1.822;2023-12-04T12:08:49;0.60;;;0.60;;
62543;SDS011;48597;49.030;1.822;2023-12-04T12:11:16;0.70;;;0.70;;
62543;SDS011;48597;49.030;1.822;2023-12-04T12:13:42;0.65;;;0.60;;
62543;SDS011;48597;49.030;1.822;2023-12-04T12:16:07;1.73;;;0.80;;
62543;SDS011;48597;49.030;1.822;2023-12-04T12:18:36;0.88;;;0.80;;
62543;SDS011;48597;49.030;1.822;2023-12-04T12:21:01;0.85;;;0.70;;
62543;SDS011;48597;49.030;1.822;2023-12-04T12:23:27;0.95;;;0.77;;
62543;SDS011;48597;49.030;1.822;2023-12-04T12:25:52;0.82;;;0.70;;
62543;SDS011;48597;49.030;1.822;2023-12-04T12:28:18;0.70;;;0.70;;
62543;SDS011;48597;49.030;1.822;2023-12-04T12:30:44;2.25;;;0.77;;
62543;SDS011;48597;49.030;1.822;2023-12-04T12:33:12;1.13;;;0.75;;
62543;SDS011;48597;49.030;1.822;2023-12-04T12:35:38;0.63;;;0.63;;
62543;SDS011;48597;49.030;1.822;2023-12-04T12:38:04;1.73;;;0.70;;
62543;SDS011;48597;49.030;1.822;2023-12-04T12:40:29;0.70;;;0.70;;
62543;SDS011;48597;49.030;1.822;2023-12-04T12:43:08;0.80;;;0.60;;
62543;SDS011;48597;49.030;1.822;2023-12-04T12:45:40;1.15;;;0.70;;
62543;SDS011;48597;49.030;1.822;2023-12-04T12:48:06;0.90;;;0.60;;
62543;SDS011;48597;49.030;1.822;2023-12-04T12:50:43;1.33;;;0.63;;
62543;SDS011;48597;49.030;1.822;2023-12-04T12:53:12;0.70;;;0.68;;
62543;SDS011;48597;49.030;1.822;2023-12-04T12:55:39;0.82;;;0.70;;
62543;SDS011;48597;49.030;1.822;2023-12-04T12:58:05;0.73;;;0.70;;
62543;SDS011;48597;49.030;1.822;2023-12-04T13:00:32;1.20;;;0.70;;
62543;SDS011;48597;49.030;1.822;2023-12-04T13:02:59;1.00;;;0.75;;
62543;SDS011;48597;49.030;1.822;2023-12-04T13:05:25;0.70;;;0.70;;
62543;SDS011;48597;49.030;1.822;2023-12-04T13:07:51;0.70;;;0.70;;
62543;SDS011;48597;49.030;1.822;2023-12-04T13:10:16;0.80;;;0.60;;
62543;SDS011;48597;49.030;1.822;2023-12-04T13:12:42;0.93;;;0.80;;
62543;SDS011;48597;49.030;1.822;2023-12-04T13:15:07;0.80;;;0.73;;
62543;SDS011;48597;49.030;1.822;2023-12-04T13:17:33;0.73;;;0.70;;
62543;SDS011;48597;49.030;1.822;2023-12-04T13:19:58;0.70;;;0.70;;
62543;SDS011;48597;49.030;1.822;2023-12-04T13:22:23;0.60;;;0.60;;
62543;SDS011;48597;49.030;1.822;2023-12-04T13:24:49;0.70;;;0.70;;
62543;SDS011;48597;49.030;1.822;2023-12-04T13:27:14;1.15;;;0.70;;
62543;SDS011;48597;49.030;1.822;2023-12-04T13:29:40;0.70;;;0.70;;
62543;SDS011;48597;49.030;1.822;2023-12-04T13:32:05;0.75;;;0.70;;
62543;SDS011;48597;49.030;1.822;2023-12-04T13:34:31;0.60;;;0.60;;
62543;SDS011;48597;49.030;1.822;2023-12-04T13:36:56;0.73;;;0.70;;
62543;SDS011;48597;49.030;1.822;2023-12-04T13:39:22;1.00;;;0.80;;
62543;SDS011;48597;49.030;1.822;2023-12-04T13:42:01;0.68;;;0.68;;
62543;SDS011;48597;49.030;1.822;2023-12-04T13:44:45;1.27;;;0.80;;
62543;SDS011;48597;49.030;1.822;2023-12-04T13:47:10;0.80;;;0.80;;
62543;SDS011;48597;49.030;1.822;2023-12-04T13:49:37;1.45;;;0.77;;
62543;SDS011;48597;49.030;1.822;2023-12-04T13:52:02;1.17;;;0.90;;
62543;SDS011;48597;49.030;1.822;2023-12-04T13:54:32;0.77;;;0.68;;
62543;SDS011;48597;49.030;1.822;2023-12-04T13:57:09;0.70;;;0.68;;
62543;SDS011;48597;49.030;1.822;2023-12-04T13:59:38;1.20;;;0.60;;
62543;SDS011;48597;49.030;1.822;2023-12-04T14:02:04;0.65;;;0.60;;
62543;SDS011;48597;49.030;1.822;2023-12-04T14:04:35;0.63;;;0.60;;
62543;SDS011;48597;49.030;1.822;2023-12-04T14:07:00;0.73;;;0.70;;
62543;SDS011;48597;49.030;1.822;2023-12-04T14:09:26;1.42;;;0.75;;
62543;SDS011;48597;49.030;1.822;2023-12-04T14:11:52;0.60;;;0.60;;
62543;SDS011;48597;49.030;1.822;2023-12-04T14:14:17;0.70;;;0.70;;
62543;SDS011;48597;49.030;1.822;2023-12-04T14:16:42;0.98;;;0.73;;
62543;SDS011;48597;49.030;1.822;2023-12-04T14:19:11;1.02;;;0.70;;
62543;SDS011;48597;49.030;1.822;2023-12-04T14:21:37;1.83;;;0.80;;
62543;SDS011;48597;49.030;1.822;2023-12-04T14:24:02;0.57;;;0.50;;
62543;SDS011;48597;49.030;1.822;2023-12-04T14:26:28;0.60;;;0.60;;
62543;SDS011;48597;49.030;1.822;2023-12-04T14:28:53;0.65;;;0.52;;
62543;SDS011;48597;49.030;1.822;2023-12-04T14:31:19;0.70;;;0.70;;
62543;SDS011;48597;49.030;1.822;2023-12-04T14:33:44;0.95;;;0.70;;
62543;SDS011;48597;49.030;1.822;2023-12-04T14:36:10;0.70;;;0.70;;
62543;SDS011;48597;49.030;1.822;2023-12-04T14:38:39;0.88;;;0.80;;
62543;SDS011;48597;49.030;1.822;2023-12-04T14:41:04;1.20;;;0.60;;
62543;SDS011;48597;49.030;1.822;2023-12-04T14:43:31;0.77;;;0.77;;
62543;SDS011;48597;49.030;1.822;2023-12-04T14:45:57;2.00;;;0.80;;